Time;durP1;ratioP1;P1;durP2;ratioP2;P2;SDS_P1;SDS_P2;PMS_P1;PMS_P2;Temp;Humidity;BMP_temperature;BMP_pressure;BME280_temperature;BME280_humidity;BME280_pressure;Samples;Min_cycle;Max_cycle;Signal;HPM_P1;HPM_P2
2021/04/22 00:01:35;;;;;;;18.08;5.80;;;4.10;88.80;;;;;;4958132;29;20050;-84
2021/04/22 00:04:02;;;;;;;22.90;6.05;;;4.10;88.60;;;;;;4955712;29;20098;-83
2021/04/22 00:06:28;;;;;;;19.17;6.03;;;4.00;88.50;;;;;;4959814;29;20507;-83
2021/04/22 00:08:55;;;;;;;16.27;5.28;;;4.10;88.90;;;;;;4956803;29;20086;-83
2021/04/22 00:11:21;;;;;;;21.00;5.85;;;4.10;88.30;;;;;;4960878;29;20054;-83
2021/04/22 00:13:47;;;;;;;18.15;5.55;;;4.10;88.50;;;;;;4939632;29;20059;-83
2021/04/22 00:16:14;;;;;;;12.38;4.72;;;4.10;88.60;;;;;;4959956;28;20051;-83
2021/04/22 00:18:40;;;;;;;19.90;5.40;;;4.20;88.40;;;;;;4953414;28;20039;-83
2021/04/22 00:21:06;;;;;;;20.00;5.60;;;4.20;87.90;;;;;;4953935;29;20556;-83
2021/04/22 00:23:33;;;;;;;15.73;5.07;;;4.20;88.10;;;;;;4951200;29;20043;-83
2021/04/22 00:25:59;;;;;;;18.50;5.70;;;4.30;88.00;;;;;;4959855;29;20066;-83
2021/04/22 00:28:26;;;;;;;16.77;4.95;;;4.30;88.20;;;;;;4958320;28;20039;-83
2021/04/22 00:30:53;;;;;;;21.13;5.13;;;4.40;88.40;;;;;;4953950;29;20170;-83
2021/04/22 00:33:21;;;;;;;17.50;5.03;;;4.40;88.20;;;;;;4958493;28;20042;-84
2021/04/22 00:35:49;;;;;;;16.50;5.43;;;4.50;88.30;;;;;;4955529;29;20058;-83
2021/04/22 00:38:19;;;;;;;18.85;6.45;;;4.50;88.50;;;;;;4958854;29;20043;-83
2021/04/22 00:40:49;;;;;;;13.80;4.55;;;4.60;88.70;;;;;;4953774;29;20042;-83
2021/04/22 00:43:18;;;;;;;18.38;4.13;;;4.60;88.60;;;;;;4970769;28;20081;-83
2021/04/22 00:45:46;;;;;;;18.67;4.90;;;4.70;88.20;;;;;;4954832;28;20045;-83
2021/04/22 00:48:16;;;;;;;15.55;5.00;;;4.70;88.10;;;;;;4959531;28;20083;-83
2021/04/22 00:50:42;;;;;;;15.18;4.80;;;4.60;87.70;;;;;;4953671;29;20047;-84
2021/04/22 00:53:09;;;;;;;19.67;4.90;;;4.60;87.90;;;;;;4958150;29;20051;-83
2021/04/22 00:55:36;;;;;;;15.32;4.38;;;4.50;87.90;;;;;;4953925;28;20058;-83
2021/04/22 00:58:03;;;;;;;17.90;4.90;;;4.60;87.70;;;;;;4956347;29;20047;-83
2021/04/22 01:00:39;;;;;;;12.93;4.70;;;4.60;87.80;;;;;;4955275;28;20134;-83
2021/04/22 01:03:06;;;;;;;15.82;5.32;;;4.60;87.80;;;;;;4961602;28;20042;-83
2021/04/22 01:05:47;;;;;;;20.63;4.97;;;4.60;87.90;;;;;;4954527;28;20321;-83
2021/04/22 01:08:14;;;;;;;19.77;6.28;;;4.60;88.00;;;;;;4960801;28;20110;-83
2021/04/22 01:10:40;;;;;;;20.55;6.03;;;4.70;88.30;;;;;;4956485;28;20035;-83
2021/04/22 01:13:06;;;;;;;13.60;4.07;;;4.70;88.50;;;;;;4955419;29;20055;-83
2021/04/22 01:15:32;;;;;;;15.27;5.05;;;4.70;88.30;;;;;;4937157;29;20131;-83
2021/04/22 01:17:59;;;;;;;16.02;4.78;;;4.70;89.00;;;;;;4961181;28;20039;-83
2021/04/22 01:20:46;;;;;;;12.18;5.03;;;4.70;88.00;;;;;;4959153;29;20451;-83
2021/04/22 01:23:13;;;;;;;16.33;4.85;;;4.80;88.40;;;;;;4956318;29;20051;-83
2021/04/22 01:25:57;;;;;;;18.98;5.38;;;4.70;87.80;;;;;;4955503;29;20094;-83
2021/04/22 01:28:24;;;;;;;14.63;4.88;;;4.60;87.70;;;;;;4973454;28;20054;-83
2021/04/22 01:30:52;;;;;;;18.50;5.30;;;4.60;87.90;;;;;;4954888;29;20051;-83
2021/04/22 01:33:27;;;;;;;23.00;5.85;;;4.50;87.80;;;;;;4955965;29;20047;-83
2021/04/22 01:35:55;;;;;;;16.27;5.07;;;4.60;88.20;;;;;;4957219;28;20465;-83
2021/04/22 01:38:22;;;;;;;18.15;4.28;;;4.50;88.00;;;;;;4950275;29;20035;-83
2021/04/22 01:40:49;;;;;;;15.70;4.65;;;4.60;88.60;;;;;;4958814;29;20035;-83
2021/04/22 01:43:15;;;;;;;19.27;5.28;;;4.70;88.70;;;;;;4954760;28;20043;-83
2021/04/22 01:45:45;;;;;;;14.68;4.70;;;4.60;88.70;;;;;;4959458;28;20448;-83
2021/04/22 01:48:11;;;;;;;13.48;4.95;;;4.60;88.80;;;;;;4969201;28;20050;-83
2021/04/22 01:50:38;;;;;;;18.58;4.30;;;4.60;89.00;;;;;;4960392;28;20047;-83
2021/04/22 01:53:06;;;;;;;20.55;5.20;;;4.70;88.90;;;;;;4954015;29;20489;-83
2021/04/22 01:55:38;;;;;;;16.02;4.43;;;4.70;89.20;;;;;;4955752;29;20054;-83
2021/04/22 01:58:06;;;;;;;16.33;5.38;;;4.70;89.10;;;;;;4955408;29;20130;-83
2021/04/22 02:00:35;;;;;;;16.52;4.85;;;4.70;89.10;;;;;;4958938;28;20105;-83
2021/04/22 02:03:03;;;;;;;11.95;3.60;;;4.80;89.20;;;;;;4945991;29;20066;-83
2021/04/22 02:05:29;;;;;;;14.23;4.07;;;4.80;89.00;;;;;;4959048;28;20040;-83
2021/04/22 02:07:55;;;;;;;20.48;4.97;;;4.80;88.80;;;;;;4953047;29;20038;-83
2021/04/22 02:10:21;;;;;;;15.73;4.25;;;4.80;89.00;;;;;;4959190;29;20041;-83
2021/04/22 02:12:48;;;;;;;15.13;3.97;;;4.80;88.50;;;;;;4950899;29;20050;-83
2021/04/22 02:15:20;;;;;;;15.93;4.03;;;4.80;88.30;;;;;;4958874;28;20061;-83
2021/04/22 02:17:46;;;;;;;17.35;3.55;;;4.90;88.70;;;;;;4949676;29;20059;-83
2021/04/22 02:20:14;;;;;;;19.15;3.72;;;4.80;88.30;;;;;;4955425;28;20043;-83
2021/04/22 02:22:45;;;;;;;10.55;3.25;;;4.90;88.50;;;;;;4956480;28;20031;-83
2021/04/22 02:25:16;;;;;;;15.07;3.75;;;4.80;88.50;;;;;;4965791;28;20075;-83
2021/04/22 02:27:42;;;;;;;15.43;4.85;;;4.80;88.20;;;;;;4957404;28;20074;-83
2021/04/22 02:30:17;;;;;;;12.45;3.45;;;4.80;88.30;;;;;;4953074;28;20680;-83
2021/04/22 02:32:43;;;;;;;16.00;4.00;;;4.80;88.20;;;;;;4942925;29;20054;-83
2021/04/22 02:35:12;;;;;;;16.52;3.38;;;4.90;88.50;;;;;;4951904;29;20034;-83
2021/04/22 02:37:38;;;;;;;12.25;3.00;;;4.80;88.20;;;;;;4958481;28;20150;-83
2021/04/22 02:40:09;;;;;;;15.38;3.50;;;4.80;87.90;;;;;;4953707;29;20427;-83
2021/04/22 02:42:35;;;;;;;15.32;3.17;;;4.80;88.00;;;;;;4955180;28;20050;-83
2021/04/22 02:45:04;;;;;;;15.65;3.30;;;4.80;87.80;;;;;;4953508;28;20064;-83
2021/04/22 02:47:30;;;;;;;14.10;2.90;;;4.80;87.60;;;;;;4953863;28;20050;-83
2021/04/22 02:49:56;;;;;;;14.65;2.97;;;4.80;87.30;;;;;;4953266;28;20039;-83
2021/04/22 02:52:22;;;;;;;14.32;2.72;;;4.90;87.10;;;;;;4959933;29;20555;-83
2021/04/22 02:54:48;;;;;;;12.23;3.47;;;4.90;87.00;;;;;;4950603;29;20050;-83
2021/04/22 02:57:13;;;;;;;17.55;2.92;;;4.90;86.60;;;;;;4956929;28;20051;-83
2021/04/22 02:59:40;;;;;;;14.30;2.35;;;5.00;86.40;;;;;;4953219;28;20106;-83
2021/04/22 03:02:05;;;;;;;12.98;3.40;;;5.10;86.20;;;;;;4954649;29;20043;-84
2021/04/22 03:04:31;;;;;;;12.00;2.90;;;5.10;85.90;;;;;;4950092;28;20043;-84
2021/04/22 03:06:57;;;;;;;19.52;3.05;;;5.10;85.80;;;;;;4954004;28;20058;-83
2021/04/22 03:09:23;;;;;;;10.77;2.60;;;5.10;85.60;;;;;;4959640;29;20035;-83
2021/04/22 03:11:49;;;;;;;12.82;2.92;;;5.10;85.50;;;;;;4952199;28;20041;-83
2021/04/22 03:14:14;;;;;;;11.25;2.42;;;5.20;85.40;;;;;;4956528;29;20070;-83
2021/04/22 03:16:42;;;;;;;9.73;2.38;;;5.20;85.20;;;;;;4954762;28;20058;-83
2021/04/22 03:19:07;;;;;;;14.07;2.55;;;5.30;85.30;;;;;;4973980;28;20052;-83
2021/04/22 03:21:33;;;;;;;12.27;2.83;;;5.30;85.90;;;;;;4953776;28;20078;-83
2021/04/22 03:23:59;;;;;;;17.40;2.67;;;5.20;85.10;;;;;;4955522;28;20417;-83
2021/04/22 03:26:25;;;;;;;12.20;2.40;;;5.30;85.00;;;;;;4955977;28;20062;-83
2021/04/22 03:28:51;;;;;;;13.48;2.72;;;5.30;84.80;;;;;;4954921;28;20035;-83
2021/04/22 03:31:18;;;;;;;12.35;2.60;;;5.30;84.50;;;;;;4951154;28;20043;-83
2021/04/22 03:33:44;;;;;;;16.08;3.13;;;5.40;84.40;;;;;;4968193;28;20047;-83
2021/04/22 03:36:10;;;;;;;17.67;2.50;;;5.30;84.20;;;;;;4952665;28;20043;-83
2021/04/22 03:38:36;;;;;;;16.45;2.90;;;5.40;84.30;;;;;;4958255;28;20043;-83
2021/04/22 03:41:02;;;;;;;10.98;2.70;;;5.40;84.10;;;;;;4949404;28;20127;-83
2021/04/22 03:43:28;;;;;;;15.95;3.05;;;5.50;84.10;;;;;;4968594;28;20035;-83
2021/04/22 03:45:54;;;;;;;14.35;2.80;;;5.50;84.00;;;;;;4955707;29;20118;-83
2021/04/22 03:48:20;;;;;;;10.50;2.72;;;5.50;83.80;;;;;;4949471;28;20035;-83
2021/04/22 03:50:46;;;;;;;11.27;2.83;;;5.40;83.70;;;;;;4953651;29;20333;-83
2021/04/22 03:53:12;;;;;;;16.13;2.60;;;5.50;83.90;;;;;;4952744;29;20059;-83
2021/04/22 03:55:38;;;;;;;16.08;2.95;;;5.40;83.80;;;;;;4956205;29;20063;-83
2021/04/22 03:58:04;;;;;;;9.90;2.50;;;5.50;83.80;;;;;;4951059;28;20047;-84
2021/04/22 04:00:30;;;;;;;15.07;2.90;;;5.50;83.70;;;;;;4950731;29;20044;-84
2021/04/22 04:02:58;;;;;;;13.88;2.75;;;5.60;83.70;;;;;;4948842;29;20043;-84
2021/04/22 04:05:23;;;;;;;11.82;2.38;;;5.50;83.70;;;;;;4956295;29;20047;-83
2021/04/22 04:07:49;;;;;;;14.10;2.85;;;5.50;83.60;;;;;;4970452;28;20046;-83
2021/04/22 04:10:15;;;;;;;10.88;2.47;;;5.50;83.40;;;;;;4955682;28;20062;-83
2021/04/22 04:12:41;;;;;;;16.17;2.95;;;5.50;83.30;;;;;;4952921;28;20194;-83
2021/04/22 04:15:08;;;;;;;11.20;2.55;;;5.50;83.10;;;;;;4957220;29;20067;-83
2021/04/22 04:17:37;;;;;;;13.45;2.97;;;5.50;83.20;;;;;;4965111;28;20054;-83
2021/04/22 04:20:09;;;;;;;16.52;2.85;;;5.50;83.40;;;;;;4951066;29;20044;-82
2021/04/22 04:22:36;;;;;;;7.82;2.45;;;5.50;83.20;;;;;;4965125;28;20039;-82
2021/04/22 04:25:03;;;;;;;14.40;3.03;;;5.50;83.00;;;;;;4954283;29;20063;-82
2021/04/22 04:27:29;;;;;;;11.63;2.30;;;5.50;82.80;;;;;;4955056;29;20035;-82
2021/04/22 04:29:55;;;;;;;13.57;2.90;;;5.50;82.60;;;;;;4950730;28;20046;-82
2021/04/22 04:32:20;;;;;;;13.68;2.80;;;5.60;82.80;;;;;;4954380;28;20038;-82
2021/04/22 04:34:46;;;;;;;10.52;2.38;;;5.60;82.70;;;;;;4952589;28;20031;-83
2021/04/22 04:37:12;;;;;;;18.35;3.30;;;5.50;82.40;;;;;;4953663;28;20377;-83
2021/04/22 04:39:38;;;;;;;10.65;2.22;;;5.60;82.50;;;;;;4949285;29;20027;-83
2021/04/22 04:42:05;;;;;;;13.50;2.35;;;5.60;82.50;;;;;;4959945;29;20491;-82
2021/04/22 04:44:30;;;;;;;7.95;2.38;;;5.60;82.40;;;;;;4969787;28;20142;-83
2021/04/22 04:46:56;;;;;;;13.27;2.63;;;5.70;82.10;;;;;;4958169;28;20135;-83
2021/04/22 04:49:22;;;;;;;17.80;3.30;;;5.70;81.90;;;;;;4954033;29;20043;-83
2021/04/22 04:51:48;;;;;;;16.77;2.97;;;5.70;81.40;;;;;;4959320;28;20062;-83
2021/04/22 04:54:14;;;;;;;13.75;2.80;;;5.70;81.40;;;;;;4953257;28;20053;-83
2021/04/22 04:56:40;;;;;;;12.75;2.42;;;5.70;81.20;;;;;;4956021;29;20508;-83
2021/04/22 04:59:06;;;;;;;11.25;2.30;;;5.70;81.40;;;;;;4954822;29;20039;-84
2021/04/22 05:01:32;;;;;;;13.20;2.95;;;5.70;81.60;;;;;;4959356;29;20042;-83
2021/04/22 05:03:58;;;;;;;15.43;2.95;;;5.70;81.40;;;;;;4957315;28;20062;-84
2021/04/22 05:06:24;;;;;;;13.73;2.80;;;5.80;81.50;;;;;;4952887;29;20483;-84
2021/04/22 05:08:50;;;;;;;13.20;3.45;;;5.70;81.30;;;;;;4956900;29;20525;-82
2021/04/22 05:11:16;;;;;;;14.02;2.67;;;5.80;81.30;;;;;;4950299;29;20054;-83
2021/04/22 05:13:42;;;;;;;18.70;4.00;;;5.90;81.20;;;;;;4959204;29;20059;-82
2021/04/22 05:16:08;;;;;;;15.32;2.97;;;5.90;80.90;;;;;;4956429;28;20108;-82
2021/04/22 05:18:34;;;;;;;18.50;3.42;;;6.00;80.90;;;;;;4961802;29;20039;-83
2021/04/22 05:20:59;;;;;;;11.10;2.70;;;6.00;80.60;;;;;;4954563;29;20051;-83
2021/04/22 05:23:25;;;;;;;15.57;3.05;;;6.10;80.70;;;;;;4960801;29;20031;-81
2021/04/22 05:25:54;;;;;;;12.93;3.38;;;6.10;80.30;;;;;;4956342;29;20468;-81
2021/04/22 05:28:20;;;;;;;11.73;3.00;;;6.10;80.00;;;;;;4956615;29;20047;-82
2021/04/22 05:30:46;;;;;;;12.43;2.78;;;6.10;79.20;;;;;;4963255;28;20062;-83
2021/04/22 05:33:12;;;;;;;12.13;2.83;;;6.20;78.50;;;;;;4955038;29;20082;-83
2021/04/22 05:35:38;;;;;;;12.70;2.17;;;6.20;77.90;;;;;;4952100;29;20053;-82
2021/04/22 05:38:06;;;;;;;13.43;2.72;;;6.30;77.40;;;;;;4939111;29;20047;-82
2021/04/22 05:40:33;;;;;;;10.98;2.65;;;6.30;76.00;;;;;;4953799;29;20051;-83
2021/04/22 05:42:59;;;;;;;16.30;2.70;;;6.40;76.30;;;;;;4954188;29;20900;-83
2021/04/22 05:45:25;;;;;;;10.43;2.45;;;6.50;75.60;;;;;;4954837;29;20051;-83
2021/04/22 05:47:51;;;;;;;11.75;2.85;;;6.60;75.60;;;;;;4946892;29;20054;-83
2021/04/22 05:50:20;;;;;;;14.23;2.85;;;6.60;75.30;;;;;;4955110;28;20035;-83
2021/04/22 05:52:46;;;;;;;16.42;3.17;;;6.70;75.50;;;;;;4949482;29;20059;-84
2021/04/22 05:55:14;;;;;;;12.13;4.07;;;6.70;75.30;;;;;;4950367;28;20146;-83
2021/04/22 05:57:40;;;;;;;10.18;2.63;;;6.80;75.00;;;;;;4949315;28;20533;-83
2021/04/22 06:00:12;;;;;;;9.02;3.08;;;6.80;75.20;;;;;;4937926;29;20055;-83
2021/04/22 06:02:38;;;;;;;16.42;3.17;;;6.90;74.30;;;;;;4949999;29;20500;-84
2021/04/22 06:05:06;;;;;;;11.73;2.65;;;6.90;74.80;;;;;;4954934;28;20082;-84
2021/04/22 06:07:32;;;;;;;13.98;2.40;;;6.90;74.90;;;;;;4949920;28;20043;-84
2021/04/22 06:09:59;;;;;;;12.02;2.67;;;7.00;75.10;;;;;;4954667;29;20110;-84
2021/04/22 06:12:30;;;;;;;10.60;2.75;;;7.00;73.70;;;;;;4951286;28;20040;-84
2021/04/22 06:14:56;;;;;;;13.73;2.13;;;7.10;72.80;;;;;;4953316;29;20388;-83
2021/04/22 06:17:22;;;;;;;14.43;2.60;;;7.10;72.60;;;;;;4932883;29;20762;-83
2021/04/22 06:19:48;;;;;;;9.70;2.80;;;7.10;72.40;;;;;;4954019;29;20512;-84
2021/04/22 06:22:14;;;;;;;14.55;2.60;;;7.20;72.40;;;;;;4947035;28;20110;-83
2021/04/22 06:24:40;;;;;;;15.55;2.95;;;7.20;72.30;;;;;;4955122;28;20126;-84
2021/04/22 06:27:06;;;;;;;12.10;2.47;;;7.30;71.60;;;;;;4955199;29;20039;-84
2021/04/22 06:29:33;;;;;;;12.15;2.70;;;7.30;71.20;;;;;;4948594;28;20055;-83
2021/04/22 06:31:59;;;;;;;10.30;2.42;;;7.40;71.40;;;;;;4953510;28;20090;-84
2021/04/22 06:34:25;;;;;;;15.73;4.50;;;7.50;71.00;;;;;;4950830;29;20043;-84
2021/04/22 06:36:51;;;;;;;13.93;3.60;;;7.60;70.60;;;;;;4954336;28;20062;-84
2021/04/22 06:39:17;;;;;;;11.73;2.63;;;7.60;70.90;;;;;;4950545;29;20039;-84
2021/04/22 06:41:43;;;;;;;13.25;2.97;;;7.60;70.60;;;;;;4953905;29;20134;-84
2021/04/22 06:44:09;;;;;;;12.00;2.47;;;7.60;70.30;;;;;;4944657;28;20043;-84
2021/04/22 06:46:36;;;;;;;13.55;3.58;;;7.70;70.10;;;;;;4953141;29;20046;-83
2021/04/22 06:49:02;;;;;;;15.25;3.47;;;7.70;70.00;;;;;;4952027;28;20097;-83
2021/04/22 06:51:30;;;;;;;11.52;2.50;;;7.80;70.10;;;;;;4956809;29;20041;-83
2021/04/22 06:53:56;;;;;;;10.27;2.97;;;7.80;69.10;;;;;;4950042;28;20036;-83
2021/04/22 06:56:22;;;;;;;11.82;2.88;;;7.80;69.20;;;;;;4955856;29;20074;-84
2021/04/22 06:58:48;;;;;;;9.57;2.90;;;7.70;69.20;;;;;;4942833;29;20078;-83
2021/04/22 07:01:14;;;;;;;15.13;4.13;;;7.80;69.20;;;;;;4950920;28;20059;-83
2021/04/22 07:03:43;;;;;;;10.45;2.67;;;7.80;68.40;;;;;;4949950;28;20163;-83
2021/04/22 07:06:08;;;;;;;11.07;2.55;;;7.90;69.00;;;;;;4943074;29;20063;-83
2021/04/22 07:08:34;;;;;;;13.07;2.85;;;7.90;68.00;;;;;;4939139;29;20448;-83
2021/04/22 07:11:00;;;;;;;12.68;2.33;;;8.00;68.40;;;;;;4945919;28;20037;-84
2021/04/22 07:13:26;;;;;;;15.68;2.95;;;8.00;68.60;;;;;;4951801;29;20430;-84
2021/04/22 07:15:52;;;;;;;16.35;3.25;;;8.10;68.30;;;;;;4945009;29;20075;-83
2021/04/22 07:18:20;;;;;;;12.13;2.83;;;8.20;67.90;;;;;;4951846;29;20444;-84
2021/04/22 07:21:06;;;;;;;14.73;4.75;;;8.20;68.00;;;;;;4941082;28;20499;-84
2021/04/22 07:23:48;;;;;;;11.15;2.92;;;8.30;67.40;;;;;;4948071;28;20070;-84
2021/04/22 07:26:34;;;;;;;13.88;3.55;;;8.30;68.00;;;;;;4946924;28;20051;-84
2021/04/22 07:29:01;;;;;;;12.18;3.00;;;8.50;67.90;;;;;;4951727;29;20605;-84
2021/04/22 07:31:27;;;;;;;9.77;2.92;;;8.60;66.90;;;;;;4944998;28;20047;-84
2021/04/22 07:33:54;;;;;;;9.25;2.80;;;8.60;65.70;;;;;;4949669;29;20086;-84
2021/04/22 07:36:21;;;;;;;13.60;3.17;;;8.60;65.60;;;;;;4945263;29;20059;-84
2021/04/22 07:38:47;;;;;;;10.57;2.05;;;8.60;64.90;;;;;;4948961;28;20400;-84
2021/04/22 07:41:14;;;;;;;8.77;2.10;;;8.70;63.60;;;;;;4941645;29;20050;-84
2021/04/22 07:43:40;;;;;;;10.18;1.92;;;8.80;63.00;;;;;;4936113;29;20074;-84
2021/04/22 07:46:07;;;;;;;11.50;2.78;;;8.80;63.10;;;;;;4948404;29;20039;-84
2021/04/22 07:48:33;;;;;;;11.07;2.40;;;8.80;63.80;;;;;;4951340;29;20043;-84
2021/04/22 07:50:59;;;;;;;10.00;2.25;;;8.70;65.60;;;;;;4927526;29;20527;-84
2021/04/22 07:53:25;;;;;;;10.93;3.15;;;8.70;65.80;;;;;;4965726;28;20048;-84
2021/04/22 07:55:52;;;;;;;11.35;3.65;;;8.70;66.00;;;;;;4948228;28;20051;-83
2021/04/22 07:58:21;;;;;;;8.98;2.03;;;8.70;66.20;;;;;;4946053;28;20047;-84
2021/04/22 08:00:48;;;;;;;16.35;2.80;;;8.70;65.80;;;;;;4929428;29;20071;-84
2021/04/22 08:03:17;;;;;;;13.93;2.28;;;8.70;65.60;;;;;;4945233;29;20047;-84
2021/04/22 08:05:45;;;;;;;6.47;2.10;;;8.70;64.80;;;;;;4948835;28;20510;-84
2021/04/22 08:08:12;;;;;;;7.75;1.60;;;8.90;64.50;;;;;;4947495;28;20031;-84
2021/04/22 08:10:45;;;;;;;8.93;2.08;;;9.00;64.70;;;;;;4951402;29;20492;-84
2021/04/22 08:13:14;;;;;;;11.70;3.42;;;9.20;64.40;;;;;;4946627;28;20412;-84
2021/04/22 08:15:41;;;;;;;6.57;2.70;;;9.50;62.50;;;;;;4953093;28;20046;-84
2021/04/22 08:18:08;;;;;;;7.10;1.95;;;9.30;61.60;;;;;;4957357;29;20051;-86
2021/04/22 08:20:35;;;;;;;6.85;1.98;;;9.20;61.40;;;;;;4943104;29;20495;-83
2021/04/22 08:23:08;;;;;;;8.82;2.13;;;9.10;62.40;;;;;;4937713;29;20503;-85
2021/04/22 08:25:55;;;;;;;8.75;1.73;;;8.80;63.40;;;;;;4934740;29;20075;-84
2021/04/22 08:28:24;;;;;;;6.90;1.77;;;8.90;62.20;;;;;;4950980;28;20404;-86
2021/04/22 08:30:55;;;;;;;8.98;2.30;;;8.90;62.70;;;;;;4952579;29;20102;-84
2021/04/22 08:33:26;;;;;;;9.68;3.33;;;9.20;62.20;;;;;;4947317;28;20051;-84
2021/04/22 08:35:55;;;;;;;6.60;1.80;;;9.60;61.20;;;;;;4936335;29;20401;-85
2021/04/22 08:38:24;;;;;;;9.15;2.08;;;9.80;60.20;;;;;;4940251;29;20047;-85
2021/04/22 08:40:51;;;;;;;6.45;1.60;;;10.10;59.80;;;;;;4961871;29;20055;-83
2021/04/22 08:43:18;;;;;;;6.80;1.92;;;10.20;59.60;;;;;;4951767;28;20043;-84
2021/04/22 08:45:47;;;;;;;8.00;1.73;;;10.40;59.50;;;;;;4940405;29;20051;-84
2021/04/22 08:48:43;;;;;;;6.78;1.67;;;10.40;58.80;;;;;;4955472;29;20050;-84
2021/04/22 08:51:14;;;;;;;11.88;2.17;;;10.20;58.30;;;;;;4951752;28;20051;-86
2021/04/22 08:53:49;;;;;;;8.00;1.70;;;10.00;60.50;;;;;;4953073;28;20105;-84
2021/04/22 08:56:19;;;;;;;6.30;2.03;;;9.90;61.10;;;;;;4940896;29;20067;-85
2021/04/22 08:58:49;;;;;;;15.18;2.80;;;9.90;62.20;;;;;;4936102;29;20066;-84
2021/04/22 09:01:18;;;;;;;9.20;1.90;;;9.70;63.50;;;;;;4955679;29;20043;-84
2021/04/22 09:03:53;;;;;;;8.77;2.17;;;9.70;64.70;;;;;;4952152;29;20045;-87
2021/04/22 09:06:21;;;;;;;7.95;2.22;;;9.70;64.70;;;;;;4955389;29;20049;-85
2021/04/22 09:08:52;;;;;;;8.05;2.22;;;9.80;65.60;;;;;;4970106;28;20036;-85
2021/04/22 09:11:26;;;;;;;8.52;2.28;;;10.00;65.10;;;;;;4962170;29;20512;-85
2021/04/22 09:13:54;;;;;;;11.15;3.50;;;10.20;63.00;;;;;;4954738;29;20059;-85
2021/04/22 09:16:29;;;;;;;11.43;3.03;;;10.40;62.70;;;;;;4955505;29;20121;-85
2021/04/22 09:19:04;;;;;;;9.77;2.22;;;10.40;61.20;;;;;;4959345;29;20053;-85
2021/04/22 09:21:36;;;;;;;6.40;1.50;;;10.40;61.50;;;;;;4958400;28;20070;-84
2021/04/22 09:24:17;;;;;;;8.13;1.88;;;10.40;60.20;;;;;;4955508;28;20425;-85
2021/04/22 09:26:53;;;;;;;5.55;1.63;;;10.30;58.90;;;;;;4968049;28;20516;-84
2021/04/22 09:29:47;;;;;;;10.23;2.45;;;10.10;59.50;;;;;;4969956;28;20462;-85
2021/04/22 09:32:27;;;;;;;6.68;1.75;;;9.90;61.60;;;;;;4951593;28;20059;-85
2021/04/22 09:34:54;;;;;;;8.77;2.05;;;9.70;61.30;;;;;;4950063;29;20499;-85
2021/04/22 09:37:41;;;;;;;4.25;1.33;;;9.70;62.00;;;;;;4936021;29;20044;-86
2021/04/22 09:40:23;;;;;;;5.35;1.58;;;9.70;62.20;;;;;;4961800;28;20040;-84
2021/04/22 09:42:49;;;;;;;7.00;1.55;;;10.00;61.80;;;;;;4954137;28;20384;-84
2021/04/22 09:45:20;;;;;;;5.32;1.25;;;10.40;60.60;;;;;;4956931;29;20043;-85
2021/04/22 09:47:49;;;;;;;5.65;1.20;;;10.60;59.00;;;;;;4942370;29;20452;-86
2021/04/22 09:50:25;;;;;;;8.70;1.60;;;10.60;58.90;;;;;;4937419;29;20137;-87
2021/04/22 09:52:56;;;;;;;7.82;1.65;;;10.60;57.60;;;;;;4940326;28;20089;-85
2021/04/22 09:55:57;;;;;;;7.22;1.55;;;10.20;57.10;;;;;;4938755;29;20048;-84
2021/04/22 09:58:35;;;;;;;6.43;1.88;;;10.20;56.20;;;;;;4955148;28;20142;-87
2021/04/22 10:01:04;;;;;;;7.60;1.45;;;10.20;56.50;;;;;;4933038;29;20062;-85
2021/04/22 10:03:42;;;;;;;13.88;1.80;;;10.30;56.60;;;;;;4966923;28;20043;-85
2021/04/22 10:06:18;;;;;;;7.10;1.65;;;10.50;56.80;;;;;;4963856;28;20046;-84
2021/04/22 10:08:54;;;;;;;9.07;1.90;;;10.50;57.20;;;;;;4935878;29;20082;-84
2021/04/22 10:11:20;;;;;;;7.47;2.08;;;10.60;58.20;;;;;;4932411;29;20054;-86
2021/04/22 10:13:49;;;;;;;9.75;2.08;;;10.50;59.50;;;;;;4951216;28;20135;-86
2021/04/22 10:16:34;;;;;;;8.13;2.33;;;10.30;60.30;;;;;;4919481;29;20117;-84
2021/04/22 10:19:15;;;;;;;7.93;1.20;;;10.20;59.80;;;;;;4968363;28;20523;-84
2021/04/22 10:21:48;;;;;;;8.23;1.90;;;10.20;60.80;;;;;;4948584;28;20054;-85
2021/04/22 10:24:15;;;;;;;3.17;1.25;;;10.20;61.20;;;;;;4938326;29;20044;-84
2021/04/22 10:26:44;;;;;;;6.38;1.60;;;10.20;60.70;;;;;;4933397;28;20053;-86
2021/04/22 10:29:19;;;;;;;7.38;1.98;;;10.50;60.80;;;;;;4953232;29;20040;-85
2021/04/22 10:32:00;;;;;;;10.00;2.05;;;10.80;59.30;;;;;;4965034;28;20083;-86
2021/04/22 10:34:34;;;;;;;9.00;2.10;;;10.90;59.30;;;;;;4955633;28;20055;-86
2021/04/22 10:37:01;;;;;;;10.50;1.70;;;10.60;59.40;;;;;;4936907;28;20057;-86
2021/04/22 10:39:29;;;;;;;7.78;1.70;;;10.50;59.90;;;;;;4954184;29;20063;-86
2021/04/22 10:42:03;;;;;;;9.75;1.92;;;10.50;59.60;;;;;;4939559;29;20043;-86
2021/04/22 10:44:36;;;;;;;8.45;1.95;;;10.60;60.00;;;;;;4951131;29;20047;-86
2021/04/22 10:47:09;;;;;;;8.93;1.60;;;10.70;58.80;;;;;;4934957;29;20056;-87
2021/04/22 10:49:39;;;;;;;7.95;2.38;;;10.70;58.60;;;;;;4933923;29;20050;-86
2021/04/22 10:52:06;;;;;;;9.75;2.33;;;10.60;58.70;;;;;;4937083;29;20350;-85
2021/04/22 10:54:39;;;;;;;8.93;2.38;;;10.60;59.10;;;;;;4947624;28;20411;-84
2021/04/22 10:57:15;;;;;;;8.35;2.38;;;10.60;59.90;;;;;;4954915;29;20086;-85
2021/04/22 10:59:48;;;;;;;9.93;2.00;;;10.50;59.50;;;;;;4942495;29;20488;-85
2021/04/22 11:02:24;;;;;;;6.20;1.60;;;10.60;59.90;;;;;;4938104;29;20477;-85
2021/04/22 11:04:52;;;;;;;7.10;1.95;;;10.80;58.90;;;;;;4950427;29;20465;-87
2021/04/22 11:07:32;;;;;;;6.18;1.40;;;10.80;57.70;;;;;;4934117;29;20047;-87
2021/04/22 11:10:01;;;;;;;6.22;1.83;;;10.80;57.00;;;;;;4961468;28;20037;-87
2021/04/22 11:12:31;;;;;;;6.45;1.70;;;10.90;57.70;;;;;;4955196;28;20153;-86
2021/04/22 11:15:18;;;;;;;8.65;1.70;;;11.00;56.70;;;;;;4947922;29;20058;-85
2021/04/22 11:18:13;;;;;;;9.80;1.95;;;11.20;55.00;;;;;;4941145;29;20055;-86
2021/04/22 11:20:47;;;;;;;7.90;1.95;;;11.20;54.80;;;;;;4949225;29;20429;-87
2021/04/22 11:23:40;;;;;;;8.50;1.65;;;11.20;55.30;;;;;;4939833;29;20110;-86
2021/04/22 11:26:30;;;;;;;5.28;1.60;;;11.40;55.60;;;;;;4947327;28;20032;-84
2021/04/22 11:29:24;;;;;;;10.50;2.65;;;11.50;54.20;;;;;;4929601;29;20368;-85
2021/04/22 11:32:10;;;;;;;7.35;1.75;;;11.50;53.80;;;;;;4958258;28;20039;-85
2021/04/22 11:34:48;;;;;;;8.20;1.90;;;11.30;53.30;;;;;;4934736;29;20047;-85
2021/04/22 11:37:41;;;;;;;8.10;2.17;;;11.30;54.00;;;;;;4934527;29;20046;-83
2021/04/22 11:40:39;;;;;;;8.40;2.00;;;11.30;53.50;;;;;;4926633;29;20051;-85
2021/04/22 11:43:40;;;;;;;7.15;1.60;;;11.30;53.90;;;;;;4924402;29;20039;-86
2021/04/22 11:46:15;;;;;;;7.90;1.80;;;11.40;51.70;;;;;;4895487;29;20055;-86
2021/04/22 11:49:20;;;;;;;7.97;1.83;;;11.60;53.50;;;;;;4952858;29;20074;-86
2021/04/22 11:52:13;;;;;;;9.00;2.30;;;11.80;53.50;;;;;;4948466;29;20058;-86
2021/04/22 11:54:45;;;;;;;9.63;1.80;;;11.70;51.80;;;;;;4933261;29;20055;-86
2021/04/22 11:57:50;;;;;;;6.72;1.60;;;11.60;51.30;;;;;;4905047;29;937188;-87
2021/04/22 12:00:28;;;;;;;7.47;1.83;;;11.40;52.00;;;;;;4927373;29;20388;-86
2021/04/22 12:02:55;;;;;;;10.05;2.97;;;11.40;53.00;;;;;;4954620;28;20051;-86
2021/04/22 12:05:23;;;;;;;7.30;1.88;;;11.50;53.30;;;;;;4939075;29;20067;-86
2021/04/22 12:08:20;;;;;;;9.23;2.20;;;11.40;53.30;;;;;;4937231;29;20512;-86
2021/04/22 12:10:55;;;;;;;6.78;1.40;;;11.30;51.80;;;;;;4918569;28;20507;-86
2021/04/22 12:13:33;;;;;;;8.00;1.73;;;11.20;52.80;;;;;;4935543;28;20043;-86
2021/04/22 12:16:11;;;;;;;7.88;1.48;;;11.40;53.10;;;;;;4931719;29;20158;-86
2021/04/22 12:18:50;;;;;;;6.10;1.85;;;11.80;52.60;;;;;;4934722;29;20051;-86
2021/04/22 12:21:49;;;;;;;8.57;1.90;;;12.00;52.30;;;;;;4948824;29;20142;-87
2021/04/22 12:24:35;;;;;;;11.80;3.08;;;12.10;52.40;;;;;;4952869;29;20067;-87
2021/04/22 12:27:48;;;;;;;7.20;2.05;;;11.80;52.20;;;;;;4936387;29;20404;-86
2021/04/22 12:30:54;;;;;;;7.32;1.55;;;11.80;50.80;;;;;;4924478;29;20039;-86
2021/04/22 12:33:36;;;;;;;7.25;1.85;;;11.80;51.60;;;;;;4919294;29;20063;-86
2021/04/22 12:36:23;;;;;;;9.07;1.90;;;11.90;50.60;;;;;;4955841;29;20150;-86
2021/04/22 12:39:03;;;;;;;7.18;1.67;;;12.10;51.80;;;;;;4961221;28;20039;-85
2021/04/22 12:45:15;;;;;;;12.00;1.83;;;12.40;51.20;;;;;;5124147;27;20414;-72
2021/04/22 12:47:56;;;;;;;10.60;2.10;;;12.60;50.10;;;;;;5110733;27;20044;-63
2021/04/22 12:50:25;;;;;;;12.98;2.63;;;12.60;50.70;;;;;;5122212;27;20049;-63
2021/04/22 12:53:03;;;;;;;12.40;6.72;;;12.20;52.10;;;;;;5112239;27;20039;-69
2021/04/22 12:55:29;;;;;;;10.15;2.55;;;12.10;52.40;;;;;;5117574;27;20044;-63
2021/04/22 12:57:56;;;;;;;8.63;2.40;;;12.00;52.40;;;;;;5109509;27;20039;-63
2021/04/22 13:00:39;;;;;;;9.80;1.80;;;11.80;52.20;;;;;;5115672;27;20058;-63
2021/04/22 13:03:12;;;;;;;9.00;2.58;;;11.80;53.50;;;;;;5109020;27;20036;-63
2021/04/22 13:05:39;;;;;;;5.78;1.77;;;12.30;52.50;;;;;;5122209;27;20071;-63
2021/04/22 13:08:06;;;;;;;8.05;2.03;;;12.50;51.90;;;;;;5108674;27;20031;-63
2021/04/22 13:10:34;;;;;;;9.20;2.30;;;12.30;50.60;;;;;;5119911;27;20040;-63